createdAt,value
2018-09-04T00:00:40.428Z,0
2018-09-04T00:01:50.598Z,0
2018-09-04T00:03:00.176Z,0
2018-09-04T00:04:10.078Z,0
2018-09-04T00:05:19.937Z,0
2018-09-04T00:06:30.063Z,0
2018-09-04T00:07:39.917Z,0
2018-09-04T00:08:49.770Z,0
2018-09-04T00:09:59.673Z,0
2018-09-04T00:11:09.792Z,0
2018-09-04T00:12:19.645Z,0
2018-09-04T00:13:29.496Z,0
2018-09-04T00:14:39.669Z,0
2018-09-04T00:15:49.804Z,0
2018-09-04T00:16:59.934Z,0
2018-09-04T00:18:09.507Z,0
2018-09-04T00:19:19.634Z,0
2018-09-04T00:20:29.764Z,0
2018-09-04T00:21:39.388Z,0
2018-09-04T00:22:49.236Z,0
2018-09-04T00:23:58.819Z,0
2018-09-04T00:25:08.668Z,0
2018-09-04T00:26:18.242Z,0
2018-09-04T00:27:28.142Z,0
2018-09-04T00:28:37.999Z,0
2018-09-04T00:29:48.127Z,0
2018-09-04T00:30:57.702Z,0
2018-09-04T00:32:07.835Z,0
2018-09-04T00:33:18.011Z,0
2018-09-04T00:34:28.109Z,0
2018-09-04T00:35:38.164Z,0
2018-09-04T00:36:48.287Z,0
2018-09-04T00:37:58.423Z,0
2018-09-04T00:39:08.051Z,0
2018-09-04T00:40:17.628Z,0
2018-09-04T00:41:26.929Z,0
2018-09-04T00:42:37.054Z,0
2018-09-04T00:43:46.917Z,0
2018-09-04T00:44:58.790Z,0
2018-09-04T00:46:08.651Z,0
2018-09-04T00:47:18.773Z,0
2018-09-04T00:48:28.630Z,0
2018-09-04T00:49:38.478Z,0
2018-09-04T00:50:48.383Z,0
2018-09-04T00:51:57.961Z,0
2018-09-04T00:53:08.089Z,0
2018-09-04T00:54:17.666Z,0
2018-09-04T00:55:27.522Z,0
2018-09-04T00:56:37.419Z,0
2018-09-04T00:57:47.273Z,0
2018-09-04T00:58:56.963Z,0
2018-09-04T01:00:07.173Z,0
2018-09-04T01:01:16.753Z,0
2018-09-04T01:02:26.932Z,0
2018-09-04T01:03:36.783Z,0
2018-09-04T01:04:46.638Z,0
2018-09-04T01:05:55.945Z,0
2018-09-04T01:07:06.077Z,0
2018-09-04T01:08:15.979Z,0
2018-09-04T01:09:26.112Z,0
2018-09-04T01:10:35.690Z,0
2018-09-04T01:11:45.820Z,0
2018-09-04T01:12:55.668Z,0
2018-09-04T01:14:05.859Z,0
2018-09-04T01:15:15.993Z,0
2018-09-04T01:16:25.842Z,0
2018-09-04T01:17:35.419Z,0
2018-09-04T01:18:45.551Z,0
2018-09-04T01:19:55.734Z,0
2018-09-04T01:21:05.585Z,0
2018-09-04T01:22:15.433Z,0
2018-09-04T01:23:25.561Z,0
2018-09-04T01:24:35.411Z,0
2018-09-04T01:25:45.540Z,0
2018-09-04T01:26:55.661Z,0
2018-09-04T01:28:05.792Z,0
2018-09-04T01:29:15.092Z,0
2018-09-04T01:30:24.950Z,0
2018-09-04T01:31:35.090Z,0
2018-09-04T01:32:44.940Z,0
2018-09-04T01:33:55.065Z,0
2018-09-04T01:35:04.916Z,0
2018-09-04T01:36:15.041Z,0
2018-09-04T01:37:25.218Z,0
2018-09-04T01:38:35.346Z,0
2018-09-04T01:39:45.197Z,0
2018-09-04T01:40:55.327Z,0
2018-09-04T01:42:05.177Z,0
2018-09-04T01:43:14.805Z,0
2018-09-04T01:44:24.933Z,0
2018-09-04T01:45:34.521Z,0
2018-09-04T01:46:44.655Z,0
2018-09-04T01:47:54.500Z,0
2018-09-04T01:49:04.413Z,0
2018-09-04T01:50:14.262Z,0
2018-09-04T01:51:24.110Z,0
2018-09-04T01:52:33.957Z,0
2018-09-04T01:53:44.081Z,0
2018-09-04T01:54:54.254Z,0
2018-09-04T01:56:04.399Z,0
2018-09-04T01:57:14.525Z,0
2018-09-04T01:58:24.376Z,0
2018-09-04T01:59:34.233Z,0
2018-09-04T02:00:44.356Z,0
2018-09-04T02:01:54.480Z,0
2018-09-04T02:03:04.606Z,0
2018-09-04T02:04:14.747Z,0
2018-09-04T02:05:24.598Z,0
2018-09-04T02:06:34.497Z,0
2018-09-04T02:07:44.621Z,0
2018-09-04T02:08:54.752Z,0
2018-09-04T02:10:04.335Z,0
2018-09-04T02:11:13.917Z,0
2018-09-04T02:12:26.390Z,0
2018-09-04T02:13:36.519Z,0
2018-09-04T02:14:46.374Z,0
2018-09-04T02:15:56.508Z,0
2018-09-04T02:17:06.630Z,0
2018-09-04T02:18:16.526Z,0
2018-09-04T02:19:26.647Z,0
2018-09-04T02:20:36.501Z,0
2018-09-04T02:21:46.619Z,0
2018-09-04T02:22:55.921Z,0
2018-09-04T02:24:06.299Z,0
2018-09-04T02:25:16.431Z,0
2018-09-04T02:26:26.561Z,0
2018-09-04T02:27:36.132Z,0
2018-09-04T02:28:46.251Z,0
2018-09-04T02:29:56.157Z,0
2018-09-04T02:31:06.304Z,0
2018-09-04T02:32:16.427Z,0
2018-09-04T02:33:26.300Z,0
2018-09-04T02:34:36.171Z,0
2018-09-04T02:35:46.329Z,0
2018-09-04T02:36:56.207Z,0
2018-09-04T02:38:06.331Z,0
2018-09-04T02:39:16.185Z,0
2018-09-04T02:40:26.062Z,0
2018-09-04T02:41:35.957Z,0
2018-09-04T02:42:45.813Z,0
2018-09-04T02:43:55.661Z,0
2018-09-04T02:45:05.786Z,0
2018-09-04T02:46:15.658Z,0
2018-09-04T02:47:25.563Z,0
2018-09-04T02:48:35.139Z,0
2018-09-04T02:49:45.283Z,0
2018-09-04T02:50:54.858Z,0
2018-09-04T02:52:04.444Z,0
2018-09-04T02:53:14.617Z,0
2018-09-04T02:54:24.741Z,0
2018-09-04T02:55:34.322Z,0
2018-09-04T02:56:44.175Z,0
2018-09-04T02:57:54.302Z,0
2018-09-04T02:59:04.205Z,0
2018-09-04T03:00:14.338Z,0
2018-09-04T03:01:24.489Z,0
2018-09-04T03:02:34.612Z,0
2018-09-04T03:03:44.739Z,0
2018-09-04T03:04:54.910Z,0
2018-09-04T03:06:04.760Z,0
2018-09-04T03:07:14.895Z,0
2018-09-04T03:08:25.022Z,0
2018-09-04T03:09:35.147Z,0
2018-09-04T03:10:45.046Z,0
2018-09-04T03:11:55.175Z,0
2018-09-04T03:13:05.303Z,0
2018-09-04T03:14:15.155Z,0
2018-09-04T03:15:25.285Z,0
2018-09-04T03:16:35.415Z,0
2018-09-04T03:17:45.549Z,0
2018-09-04T03:18:55.676Z,0
2018-09-04T03:20:05.860Z,0
2018-09-04T03:21:15.716Z,0
2018-09-04T03:22:25.896Z,0
2018-09-04T03:23:35.745Z,0
2018-09-04T03:24:45.604Z,0
2018-09-04T03:25:55.740Z,0
2018-09-04T03:27:05.871Z,0
2018-09-04T03:28:15.499Z,0
2018-09-04T03:29:25.381Z,0
2018-09-04T03:30:35.266Z,0
2018-09-04T03:31:45.388Z,0
2018-09-04T03:32:55.518Z,0
2018-09-04T03:34:05.649Z,0
2018-09-04T03:35:15.500Z,0
2018-09-04T03:36:25.625Z,4
2018-09-04T03:37:34.656Z,4
2018-09-04T03:38:44.511Z,0
2018-09-04T03:39:54.694Z,4
2018-09-04T03:41:04.827Z,4
2018-09-04T03:42:14.746Z,4
2018-09-04T03:43:24.694Z,4
2018-09-04T03:44:35.275Z,4
2018-09-04T03:45:44.905Z,8
2018-09-04T03:46:55.031Z,8
2018-09-04T03:48:05.163Z,8
2018-09-04T03:49:15.292Z,8
2018-09-04T03:50:25.141Z,12
2018-09-04T03:51:34.495Z,16
2018-09-04T03:52:44.615Z,16
2018-09-04T03:53:54.748Z,20
2018-09-04T03:55:04.053Z,20
2018-09-04T03:56:13.627Z,24
2018-09-04T03:57:23.259Z,28
2018-09-04T03:58:33.113Z,36
2018-09-04T03:59:42.418Z,40
2018-09-04T04:00:52.543Z,44
2018-09-04T04:02:02.395Z,52
2018-09-04T04:03:12.524Z,56
2018-09-04T04:04:22.097Z,64
2018-09-04T04:05:32.225Z,72
2018-09-04T04:06:42.078Z,84
2018-09-04T04:07:51.653Z,88
2018-09-04T04:09:01.828Z,100
2018-09-04T04:10:11.405Z,112
2018-09-04T04:11:21.526Z,124
2018-09-04T04:12:31.661Z,140
2018-09-04T04:13:41.794Z,156
2018-09-04T04:14:51.692Z,172
2018-09-04T04:16:01.562Z,188
2018-09-04T04:17:11.695Z,208
2018-09-04T04:18:21.816Z,228
2018-09-04T04:19:31.670Z,252
2018-09-04T04:20:41.846Z,272
2018-09-04T04:21:51.696Z,296
2018-09-04T04:23:01.547Z,320
2018-09-04T04:24:11.533Z,344
2018-09-04T04:25:21.381Z,376
2018-09-04T04:26:31.567Z,400
2018-09-04T04:27:41.429Z,424
2018-09-04T04:28:51.560Z,460
2018-09-04T04:30:01.417Z,484
2018-09-04T04:31:11.552Z,516
2018-09-04T04:32:21.452Z,548
2018-09-04T04:33:31.301Z,576
2018-09-04T04:34:41.429Z,604
2018-09-04T04:35:51.283Z,636
2018-09-04T04:37:01.133Z,664
2018-09-04T04:38:11.270Z,700
2018-09-04T04:39:21.136Z,732
2018-09-04T04:40:30.989Z,760
2018-09-04T04:41:41.125Z,796
2018-09-04T04:42:50.981Z,828
2018-09-04T04:44:00.883Z,860
2018-09-04T04:45:10.467Z,892
2018-09-04T04:46:20.368Z,924
2018-09-04T04:47:30.222Z,956
2018-09-04T04:48:40.350Z,992
2018-09-04T04:49:50.477Z,1024
2018-09-04T04:51:00.324Z,1060
2018-09-04T04:52:09.906Z,1088
2018-09-04T04:53:20.029Z,1124
2018-09-04T04:54:29.603Z,1160
2018-09-04T04:55:39.524Z,1192
2018-09-04T04:56:49.659Z,1224
2018-09-04T04:57:59.787Z,1260
2018-09-04T04:59:09.911Z,1292
2018-09-04T05:00:20.286Z,1324
2018-09-04T05:01:30.006Z,1356
2018-09-04T05:02:40.138Z,1388
2018-09-04T05:03:50.266Z,1416
2018-09-04T05:05:00.130Z,1448
2018-09-04T05:06:10.259Z,1480
2018-09-04T05:07:20.113Z,1508
2018-09-04T05:08:29.704Z,1544
2018-09-04T05:09:39.858Z,1576
2018-09-04T05:10:49.160Z,1600
2018-09-04T05:11:58.460Z,1632
2018-09-04T05:13:08.638Z,1672
2018-09-04T05:14:18.764Z,1704
2018-09-04T05:15:28.613Z,1732
2018-09-04T05:16:38.459Z,1760
2018-09-04T05:17:48.309Z,1792
2018-09-04T05:18:58.209Z,1816
2018-09-04T05:20:08.058Z,1848
2018-09-04T05:21:18.180Z,1880
2018-09-04T05:22:28.063Z,1916
2018-09-04T05:23:38.305Z,1964
2018-09-04T05:24:48.494Z,2016
2018-09-04T05:25:58.352Z,2072
2018-09-04T05:27:08.493Z,2136
2018-09-04T05:28:18.343Z,2212
2018-09-04T05:29:28.283Z,2300
2018-09-04T05:30:38.375Z,2412
2018-09-04T05:31:48.498Z,2532
2018-09-04T05:32:58.363Z,2648
2018-09-04T05:34:08.488Z,2764
2018-09-04T05:35:18.072Z,2896
2018-09-04T05:36:27.700Z,3036
2018-09-04T05:37:37.842Z,3180
2018-09-04T05:38:47.721Z,3300
2018-09-04T05:39:57.852Z,3388
2018-09-04T05:41:07.705Z,3428
2018-09-04T05:42:17.603Z,3440
2018-09-04T05:43:27.731Z,3440
2018-09-04T05:44:37.863Z,3452
2018-09-04T05:45:47.721Z,3456
2018-09-04T05:46:57.574Z,3464
2018-09-04T05:48:07.476Z,3484
2018-09-04T05:49:17.610Z,3492
2018-09-04T05:50:27.739Z,3480
2018-09-04T05:51:37.869Z,3456
2018-09-04T05:52:47.450Z,3416
2018-09-04T05:53:57.785Z,3332
2018-09-04T05:55:08.056Z,3276
2018-09-04T05:56:17.400Z,3092
2018-09-04T05:57:27.252Z,2964
2018-09-04T05:58:37.377Z,2860
2018-09-04T05:59:47.550Z,2700
2018-09-04T06:00:57.398Z,2644
2018-09-04T06:02:07.251Z,2624
2018-09-04T06:03:17.155Z,2612
2018-09-04T06:04:27.287Z,2620
2018-09-04T06:05:37.140Z,2640
2018-09-04T06:06:46.990Z,2676
2018-09-04T06:07:56.849Z,2740
2018-09-04T06:09:06.978Z,2756
2018-09-04T06:10:16.833Z,2816
2018-09-04T06:11:26.752Z,2892
2018-09-04T06:12:36.880Z,2932
2018-09-04T06:13:46.757Z,2952
2018-09-04T06:14:57.145Z,2996
2018-09-04T06:16:06.746Z,3028
2018-09-04T06:17:16.653Z,2976
2018-09-04T06:18:26.786Z,2968
2018-09-04T06:19:36.640Z,2972
2018-09-04T06:20:45.945Z,2960
2018-09-04T06:21:55.801Z,2960
2018-09-04T06:23:05.445Z,2988
2018-09-04T06:24:15.296Z,2872
2018-09-04T06:25:24.874Z,3032
2018-09-04T06:26:34.740Z,2888
2018-09-04T06:27:44.588Z,2916
2018-09-04T06:28:54.759Z,3000
2018-09-04T06:30:04.951Z,3084
2018-09-04T06:31:15.088Z,2908
2018-09-04T06:32:25.209Z,2884
2018-09-04T06:33:35.334Z,2860
2018-09-04T06:34:45.561Z,2944
2018-09-04T06:35:55.136Z,2980
2018-09-04T06:37:04.443Z,2692
2018-09-04T06:38:13.743Z,2648
2018-09-04T06:39:23.604Z,2632
2018-09-04T06:40:33.661Z,2616
2018-09-04T06:41:43.511Z,2592
2018-09-04T06:43:15.842Z,2568
2018-09-04T06:44:25.621Z,2592
2018-09-04T06:45:36.023Z,2640
2018-09-04T06:46:46.599Z,2752
2018-09-04T06:47:56.729Z,2832
2018-09-04T06:49:06.304Z,2912
2018-09-04T06:50:15.879Z,2948
2018-09-04T06:51:25.777Z,2704
2018-09-04T06:52:35.627Z,2888
2018-09-04T06:53:45.203Z,2716
2018-09-04T06:54:55.333Z,2680
2018-09-04T06:56:05.459Z,2736
2018-09-04T06:57:15.085Z,2736
2018-09-04T06:58:24.658Z,2700
2018-09-04T06:59:34.785Z,2900
2018-09-04T07:00:44.909Z,2844
2018-09-04T07:01:55.036Z,3076
2018-09-04T07:03:04.660Z,2932
2018-09-04T07:04:14.277Z,2740
2018-09-04T07:05:24.133Z,2804
2018-09-04T07:06:33.983Z,2788
2018-09-04T07:07:44.110Z,2844
2018-09-04T07:08:53.971Z,3036
2018-09-04T07:10:03.827Z,3172
2018-09-04T07:11:13.402Z,3316
2018-09-04T07:12:23.257Z,3324
2018-09-04T07:13:33.102Z,3336
2018-09-04T07:14:42.955Z,3344
2018-09-04T07:15:53.075Z,3356
2018-09-04T07:17:03.191Z,3372
2018-09-04T07:18:13.256Z,3384
2018-09-04T07:19:23.106Z,3396
2018-09-04T07:20:32.738Z,3408
2018-09-04T07:21:42.865Z,3416
2018-09-04T07:22:52.991Z,3428
2018-09-04T07:24:02.982Z,3436
2018-09-04T07:25:12.807Z,3448
2018-09-04T07:26:22.995Z,3452
2018-09-04T07:27:32.848Z,3464
2018-09-04T07:28:42.983Z,3472
2018-09-04T07:29:52.841Z,3488
2018-09-04T07:31:02.699Z,3500
2018-09-04T07:32:12.557Z,3520
2018-09-04T07:33:22.410Z,3536
2018-09-04T07:34:32.543Z,3544
2018-09-04T07:35:42.399Z,3552
2018-09-04T07:36:52.528Z,3560
2018-09-04T07:38:02.859Z,3568
2018-09-04T07:39:12.452Z,3584
2018-09-04T07:40:22.577Z,3584
2018-09-04T07:41:32.425Z,3584
2018-09-04T07:42:42.280Z,3600
2018-09-04T07:43:52.610Z,3608
2018-09-04T07:45:02.739Z,3616
2018-09-04T07:46:11.770Z,3624
2018-09-04T07:47:21.909Z,3628
2018-09-04T07:48:32.038Z,3632
2018-09-04T07:49:41.951Z,3644
2018-09-04T07:50:52.077Z,3656
2018-09-04T07:52:01.929Z,3668
2018-09-04T07:53:11.528Z,3676
2018-09-04T07:54:21.653Z,3688
2018-09-04T07:55:31.789Z,3696
2018-09-04T07:56:41.926Z,3708
2018-09-04T07:57:51.785Z,3716
2018-09-04T07:59:01.912Z,3728
2018-09-04T08:00:11.266Z,3736
2018-09-04T08:01:21.158Z,3740
2018-09-04T08:02:30.185Z,3752
2018-09-04T08:03:39.762Z,3760
2018-09-04T08:04:49.338Z,3772
2018-09-04T08:05:59.202Z,3780
2018-09-04T08:07:09.482Z,3788
2018-09-04T08:08:19.609Z,3792
2018-09-04T08:09:29.735Z,3800
2018-09-04T08:10:39.881Z,3808
2018-09-04T08:11:49.729Z,3816
2018-09-04T08:12:59.584Z,3828
2018-09-04T08:14:09.724Z,3832
2018-09-04T08:15:19.303Z,3836
2018-09-04T08:16:30.019Z,3844
2018-09-04T08:17:40.249Z,3856
2018-09-04T08:18:50.397Z,3868
2018-09-04T08:20:00.256Z,3880
2018-09-04T08:21:10.389Z,3892
2018-09-04T08:22:19.974Z,3896
2018-09-04T08:23:30.116Z,3912
2018-09-04T08:24:39.986Z,3920
2018-09-04T08:25:49.842Z,3924
2018-09-04T08:26:59.420Z,3928
2018-09-04T08:28:09.278Z,3940
2018-09-04T08:29:19.414Z,3952
2018-09-04T08:30:29.274Z,3964
2018-09-04T08:31:39.413Z,3976
2018-09-04T08:32:49.871Z,3992
2018-09-04T08:33:59.909Z,4004
2018-09-04T08:35:09.488Z,4016
2018-09-04T08:36:19.344Z,4032
2018-09-04T08:37:29.478Z,4044
2018-09-04T08:38:39.621Z,4052
2018-09-04T08:39:49.228Z,4064
2018-09-04T08:40:59.098Z,4080
2018-09-04T08:42:08.961Z,4088
2018-09-04T08:43:19.095Z,4100
2018-09-04T08:44:29.225Z,4116
2018-09-04T08:45:39.086Z,4124
2018-09-04T08:46:49.220Z,4140
2018-09-04T08:47:59.205Z,4152
2018-09-04T08:49:08.786Z,4172
2018-09-04T08:50:18.645Z,4188
2018-09-04T08:51:28.792Z,4200
2018-09-04T08:52:38.919Z,4224
2018-09-04T08:53:49.240Z,4244
2018-09-04T08:54:59.102Z,4264
2018-09-04T08:56:08.961Z,4284
2018-09-04T08:57:19.095Z,4312
2018-09-04T08:58:29.352Z,4332
2018-09-04T08:59:38.994Z,4356
2018-09-04T09:00:48.846Z,4376
2018-09-04T09:01:58.425Z,4396
2018-09-04T09:03:08.009Z,4412
2018-09-04T09:04:18.165Z,4424
2018-09-04T09:05:28.453Z,4440
2018-09-04T09:06:38.371Z,4456
2018-09-04T09:07:48.278Z,4472
2018-09-04T09:08:58.408Z,4492
2018-09-04T09:10:08.276Z,4508
2018-09-04T09:11:17.941Z,4524
2018-09-04T09:12:28.140Z,4540
2018-09-04T09:13:37.725Z,4552
2018-09-04T09:14:47.855Z,4568
2018-09-04T09:15:57.977Z,4584
2018-09-04T09:17:07.829Z,4600
2018-09-04T09:18:17.954Z,4616
2018-09-04T09:19:28.093Z,4632
2018-09-04T09:20:37.955Z,4652
2018-09-04T09:21:48.096Z,4668
2018-09-04T09:22:58.436Z,4688
2018-09-04T09:24:08.111Z,4708
2018-09-04T09:25:18.255Z,4732
2018-09-04T09:26:28.394Z,4752
2018-09-04T09:27:38.525Z,4756
2018-09-04T09:28:48.654Z,4776
2018-09-04T09:29:58.509Z,4792
2018-09-04T09:31:08.096Z,4804
2018-09-04T09:32:17.949Z,4832
2018-09-04T09:33:27.806Z,4844
2018-09-04T09:34:37.717Z,4860
2018-09-04T09:35:47.853Z,4876
2018-09-04T09:36:58.295Z,4892
2018-09-04T09:38:08.664Z,4908
2018-09-04T09:39:18.807Z,4928
2018-09-04T09:40:29.090Z,4948
2018-09-04T09:41:39.221Z,4968
2018-09-04T09:42:49.396Z,4992
2018-09-04T09:43:58.981Z,5044
2018-09-04T09:45:08.847Z,5044
2018-09-04T09:46:18.707Z,5072
2018-09-04T09:47:28.848Z,5100
2018-09-04T09:48:38.980Z,5124
2018-09-04T09:49:49.106Z,5144
2018-09-04T09:50:59.080Z,5164
2018-09-04T09:52:08.949Z,5188
2018-09-04T09:53:19.264Z,5208
2018-09-04T09:54:29.491Z,5240
2018-09-04T09:55:39.669Z,5260
2018-09-04T09:56:50.041Z,5284
2018-09-04T09:58:00.109Z,5312
2018-09-04T09:59:10.301Z,5348
2018-09-04T10:00:20.398Z,5376
2018-09-04T10:01:30.093Z,5408
2018-09-04T10:02:40.088Z,5428
2018-09-04T10:03:49.434Z,5456
2018-09-04T10:04:59.607Z,5488
2018-09-04T10:06:09.745Z,5528
2018-09-04T10:07:19.598Z,5560
2018-09-04T10:08:29.349Z,5596
2018-09-04T10:09:43.208Z,5628
2018-09-04T10:10:53.431Z,5676
2018-09-04T10:12:03.293Z,5700
2018-09-04T10:13:13.149Z,5732
2018-09-04T10:14:23.289Z,5780
2018-09-04T10:15:33.416Z,5800
2018-09-04T10:16:43.560Z,5816
2018-09-04T10:17:53.414Z,5836
2018-09-04T10:19:03.269Z,5864
2018-09-04T10:20:13.400Z,5892
2018-09-04T10:21:23.174Z,5920
2018-09-04T10:22:33.485Z,5940
2018-09-04T10:23:43.614Z,5948
2018-09-04T10:24:52.923Z,5964
2018-09-04T10:26:02.503Z,5996
2018-09-04T10:27:12.084Z,6032
2018-09-04T10:28:21.940Z,6072
2018-09-04T10:29:31.247Z,6128
2018-09-04T10:30:41.103Z,6176
2018-09-04T10:31:50.967Z,6240
2018-09-04T10:33:01.101Z,6288
2018-09-04T10:34:11.229Z,6340
2018-09-04T10:35:20.537Z,6368
2018-09-04T10:36:31.030Z,6392
2018-09-04T10:37:41.158Z,6408
2018-09-04T10:38:51.020Z,6436
2018-09-04T10:40:01.150Z,6496
2018-09-04T10:41:11.054Z,6572
2018-09-04T10:42:21.180Z,6652
2018-09-04T10:43:30.763Z,6692
2018-09-04T10:44:40.501Z,6696
2018-09-04T10:45:50.633Z,6672
2018-09-04T10:47:00.762Z,6648
2018-09-04T10:48:10.341Z,6640
2018-09-04T10:49:20.193Z,6624
2018-09-04T10:50:30.048Z,6588
2018-09-04T10:51:40.183Z,6600
2018-09-04T10:52:50.047Z,6592
2018-09-04T10:53:59.631Z,6592
2018-09-04T10:55:09.214Z,6588
2018-09-04T10:56:19.366Z,6600
2018-09-04T10:57:29.498Z,6620
2018-09-04T10:58:39.675Z,6628
2018-09-04T10:59:48.980Z,6656
2018-09-04T11:00:58.836Z,6708
2018-09-04T11:02:09.086Z,6744
2018-09-04T11:03:18.981Z,6768
2018-09-04T11:04:29.115Z,6792
2018-09-04T11:05:38.986Z,6832
2018-09-04T11:06:49.118Z,6856
2018-09-04T11:07:59.254Z,6892
2018-09-04T11:09:08.751Z,6960
2018-09-04T11:10:18.627Z,7012
2018-09-04T11:11:28.482Z,7096
2018-09-04T11:12:38.612Z,7532
2018-09-04T11:13:48.740Z,10316
2018-09-04T11:14:58.592Z,40320
2018-09-04T11:16:08.177Z,58048
2018-09-04T11:17:18.047Z,56032
2018-09-04T11:18:28.187Z,55456
2018-09-04T11:19:38.043Z,57280
2018-09-04T11:20:48.189Z,57600
2018-09-04T11:21:58.329Z,59072
2018-09-04T11:23:07.922Z,57728
2018-09-04T11:24:17.784Z,57056
2018-09-04T11:25:27.096Z,56832
2018-09-04T11:26:36.963Z,57952
2018-09-04T11:27:46.556Z,57024
2018-09-04T11:28:56.418Z,55776
2018-09-04T11:30:06.562Z,55840
2018-09-04T11:31:16.478Z,52032
2018-09-04T11:32:26.632Z,57280
2018-09-04T11:33:36.224Z,58752
2018-09-04T11:34:46.090Z,57664
2018-09-04T11:35:56.233Z,58112
2018-09-04T11:37:05.869Z,59648
2018-09-04T11:38:16.027Z,58720
2018-09-04T11:39:26.168Z,60960
2018-09-04T11:40:36.670Z,61440
2018-09-04T11:41:46.647Z,59264
2018-09-04T11:42:56.577Z,60480
2018-09-04T11:44:06.443Z,60192
2018-09-04T11:45:16.319Z,60160
2018-09-04T11:46:26.207Z,59168
2018-09-04T11:47:36.346Z,57696
2018-09-04T11:48:46.137Z,59008
2018-09-04T11:49:55.738Z,59232
2018-09-04T11:51:05.602Z,59648
2018-09-04T11:52:15.529Z,61408
2018-09-04T11:53:25.129Z,59328
2018-09-04T11:54:35.056Z,60576
2018-09-04T11:55:44.922Z,59904
2018-09-04T11:56:55.068Z,56448
2018-09-04T11:58:05.205Z,59072
2018-09-04T11:59:15.350Z,59808
2018-09-04T12:00:25.275Z,60352
2018-09-04T12:01:35.143Z,59328
2018-09-04T12:02:45.289Z,60672
2018-09-04T12:03:54.610Z,58720
2018-09-04T12:05:04.486Z,55808
2018-09-04T12:06:14.636Z,57984
2018-09-04T12:07:24.788Z,57824
2018-09-04T12:08:34.656Z,58016
2018-09-04T12:09:44.253Z,59008
2018-09-04T12:10:54.119Z,59296
2018-09-04T12:12:04.041Z,61312
2018-09-04T12:13:14.619Z,60032
2018-09-04T12:14:24.432Z,59360
2018-09-04T12:15:34.317Z,59680
2018-09-04T12:16:43.915Z,61472
2018-09-04T12:17:53.791Z,62304
2018-09-04T12:19:03.829Z,61952
2018-09-04T12:20:14.004Z,61824
2018-09-04T12:21:24.584Z,61920
2018-09-04T12:22:34.738Z,64800
2018-09-04T12:23:44.386Z,64096
2018-09-04T12:24:54.948Z,63456
2018-09-04T12:26:05.118Z,63648
2018-09-04T12:27:15.549Z,63232
2018-09-04T12:28:25.874Z,61376
2018-09-04T12:29:36.069Z,58144
2018-09-04T12:30:45.937Z,59680
2018-09-04T12:31:55.807Z,61952
2018-09-04T12:33:05.682Z,59840
2018-09-04T12:34:15.581Z,59840
2018-09-04T12:35:25.776Z,59520
2018-09-04T12:36:35.503Z,58496
2018-09-04T12:37:45.557Z,58592
2018-09-04T12:38:55.422Z,58304
2018-09-04T12:40:05.023Z,61696
2018-09-04T12:41:14.398Z,61312
2018-09-04T12:42:24.133Z,61280
2018-09-04T12:43:33.471Z,60160
2018-09-04T12:44:42.791Z,58080
2018-09-04T12:45:52.662Z,61120
2018-09-04T12:47:02.881Z,59968
2018-09-04T12:48:13.623Z,59360
2018-09-04T12:49:24.069Z,60768
2018-09-04T12:50:33.666Z,60480
2018-09-04T12:51:43.261Z,59520
2018-09-04T12:52:53.462Z,58304
2018-09-04T12:54:02.780Z,56768
2018-09-04T12:55:12.377Z,56480
2018-09-04T12:56:22.243Z,59424
2018-09-04T12:57:32.388Z,58048
2018-09-04T12:58:42.583Z,59328
2018-09-04T12:59:52.436Z,58528
2018-09-04T13:01:02.464Z,57568
2018-09-04T13:02:12.070Z,57280
2018-09-04T13:03:21.673Z,56928
2018-09-04T13:04:31.559Z,60576
2018-09-04T13:05:41.701Z,62848
2018-09-04T13:06:51.570Z,61952
2018-09-04T13:08:01.161Z,59712
2018-09-04T13:09:11.824Z,62400
2018-09-04T13:10:22.053Z,64096
2018-09-04T13:11:31.929Z,60544
2018-09-04T13:12:42.071Z,58432
2018-09-04T13:13:51.996Z,60928
2018-09-04T13:15:02.139Z,62720
2018-09-04T13:16:11.997Z,65216
2018-09-04T13:17:22.148Z,67328
2018-09-04T13:18:31.743Z,67904
2018-09-04T13:19:41.615Z,69472
2018-09-04T13:20:51.210Z,69792
2018-09-04T13:22:01.785Z,67840
2018-09-04T13:23:12.182Z,64992
2018-09-04T13:24:22.059Z,60416
2018-09-04T13:25:31.935Z,57984
2018-09-04T13:26:41.816Z,57088
2018-09-04T13:27:51.958Z,56384
2018-09-04T13:29:01.828Z,55136
2018-09-04T13:30:11.706Z,54880
2018-09-04T13:31:21.302Z,54304
2018-09-04T13:32:31.456Z,52160
2018-09-04T13:33:41.662Z,53088
2018-09-04T13:34:51.534Z,53536
2018-09-04T13:36:01.685Z,53696
2018-09-04T13:37:11.015Z,53184
2018-09-04T13:38:20.616Z,51552
2018-09-04T13:39:30.823Z,48416
2018-09-04T13:40:40.689Z,47968
2018-09-04T13:41:50.842Z,49856
2018-09-04T13:43:00.718Z,52288
2018-09-04T13:44:10.603Z,53344
2018-09-04T13:45:20.532Z,58112
2018-09-04T13:46:30.130Z,62560
2018-09-04T13:47:40.004Z,61440
2018-09-04T13:48:49.889Z,48864
2018-09-04T13:50:00.030Z,45920
2018-09-04T13:51:10.171Z,58528
2018-09-04T13:52:20.319Z,70592
2018-09-04T13:53:30.470Z,33824
2018-09-04T13:54:40.339Z,41408
2018-09-04T13:55:49.933Z,58912
2018-09-04T13:56:59.641Z,35360
2018-09-04T13:58:09.836Z,13652
2018-09-04T13:59:19.976Z,9688
2018-09-04T14:00:30.135Z,9316
2018-09-04T14:01:40.273Z,9116
2018-09-04T14:02:50.417Z,9184
2018-09-04T14:04:00.282Z,9556
2018-09-04T14:05:09.874Z,9280
2018-09-04T14:06:20.024Z,11848
2018-09-04T14:07:29.895Z,26272
2018-09-04T14:08:40.041Z,58848
2018-09-04T14:09:50.180Z,60512
2018-09-04T14:11:00.332Z,68576
2018-09-04T14:12:10.506Z,64256
2018-09-04T14:13:20.660Z,62656
2018-09-04T14:14:30.585Z,63136
2018-09-04T14:15:40.725Z,65408
2018-09-04T14:16:50.765Z,68544
2018-09-04T14:18:01.067Z,67296
2018-09-04T14:19:10.931Z,66080
2018-09-04T14:20:21.133Z,65376
2018-09-04T14:21:30.997Z,63328
2018-09-04T14:22:41.500Z,61792
2018-09-04T14:23:51.373Z,60448
2018-09-04T14:25:01.513Z,60704
2018-09-04T14:26:11.430Z,61440
2018-09-04T14:27:21.459Z,61760
2018-09-04T14:29:09.307Z,62080
2018-09-04T14:30:23.566Z,61184
2018-09-04T14:31:33.239Z,64544
2018-09-04T14:32:43.110Z,66560
2018-09-04T14:33:53.266Z,64672
2018-09-04T14:35:03.429Z,62208
2018-09-04T14:36:13.313Z,61280
2018-09-04T14:37:23.382Z,61856
2018-09-04T14:38:33.527Z,60768
2018-09-04T14:39:43.675Z,60672
2018-09-04T14:41:03.676Z,61184
2018-09-04T14:42:14.049Z,60768
2018-09-04T14:43:23.996Z,62688
2018-09-04T14:44:34.140Z,62400
2018-09-04T14:45:44.290Z,60000
2018-09-04T14:46:54.458Z,58144
2018-09-04T14:48:04.728Z,60352
2018-09-04T14:49:14.219Z,59328
2018-09-04T14:50:24.374Z,58208
2018-09-04T14:51:34.518Z,56704
2018-09-04T14:52:44.400Z,57440
2018-09-04T14:53:54.274Z,57600
2018-09-04T14:55:04.419Z,58272
2018-09-04T14:56:14.027Z,56096
2018-09-04T14:57:23.898Z,57376
2018-09-04T14:58:33.766Z,57664
2018-09-04T14:59:43.918Z,56960
2018-09-04T15:00:53.804Z,56800
2018-09-04T15:02:03.681Z,56352
2018-09-04T15:03:13.546Z,54688
2018-09-04T15:04:23.416Z,54272
2018-09-04T15:05:32.786Z,53792
2018-09-04T15:06:42.657Z,53600
2018-09-04T15:07:52.529Z,52672
2018-09-04T15:09:02.397Z,52544
2018-09-04T15:10:12.549Z,52064
2018-09-04T15:11:22.468Z,51584
2018-09-04T15:12:32.349Z,50272
2018-09-04T15:13:57.101Z,49152
2018-09-04T15:15:06.695Z,49408
2018-09-04T15:16:16.624Z,51392
2018-09-04T15:17:26.497Z,51584
2018-09-04T15:18:36.365Z,50656
2018-09-04T15:19:46.252Z,50944
2018-09-04T15:20:55.849Z,50112
2018-09-04T15:22:05.773Z,52064
2018-09-04T15:23:15.371Z,50464
2018-09-04T15:24:24.974Z,27072
2018-09-04T15:25:35.347Z,8848
2018-09-04T15:26:45.747Z,8960
2018-09-04T15:27:55.669Z,7988
2018-09-04T15:29:05.546Z,10136
2018-09-04T15:30:15.421Z,11308
2018-09-04T15:31:25.583Z,7368
2018-09-04T15:32:35.760Z,7056
2018-09-04T15:33:45.238Z,6980
2018-09-04T15:34:55.125Z,6936
2018-09-04T15:36:04.990Z,6800
2018-09-04T15:37:14.590Z,6816
2018-09-04T15:38:24.739Z,6656
2018-09-04T15:39:34.927Z,6524
2018-09-04T15:40:45.070Z,6456
2018-09-04T15:41:54.949Z,6440
2018-09-04T15:43:04.819Z,6380
2018-09-04T15:44:14.680Z,6412
2018-09-04T15:45:24.592Z,6280
2018-09-04T15:46:34.459Z,6212
2018-09-04T15:47:44.608Z,6220
2018-09-04T15:48:54.202Z,6124
2018-09-04T15:50:03.519Z,6056